createdAt,value
2023-03-06T00:00:15.014Z,11.95
2023-03-06T00:02:41.636Z,8.95
2023-03-06T00:05:08.393Z,13.73
2023-03-06T00:07:34.922Z,11.95
2023-03-06T00:10:01.537Z,12.82
2023-03-06T00:12:28.106Z,9.02
2023-03-06T00:14:54.871Z,13.02
2023-03-06T00:17:21.522Z,11.13
2023-03-06T00:19:48.140Z,11.25
2023-03-06T00:22:15.378Z,11.48
2023-03-06T00:24:43.147Z,15.88
2023-03-06T00:27:10.248Z,13.88
2023-03-06T00:29:36.937Z,15.40
2023-03-06T00:32:03.770Z,12.68
2023-03-06T00:34:30.344Z,10.63
2023-03-06T00:36:56.951Z,12.80
2023-03-06T00:39:23.656Z,14.90
2023-03-06T00:41:50.209Z,13.52
2023-03-06T00:44:16.976Z,14.45
2023-03-06T00:46:43.515Z,13.02
2023-03-06T00:49:10.117Z,11.73
2023-03-06T00:51:36.681Z,12.13
2023-03-06T00:54:03.437Z,12.07
2023-03-06T00:56:30.155Z,17.90
2023-03-06T00:58:56.674Z,10.50
2023-03-06T01:01:23.466Z,11.07
2023-03-06T01:03:50.049Z,11.43
2023-03-06T01:06:17.540Z,11.48
2023-03-06T01:08:44.151Z,11.98
2023-03-06T01:11:10.871Z,9.20
2023-03-06T01:13:37.617Z,12.98
2023-03-06T01:16:13.733Z,9.27
2023-03-06T01:18:40.990Z,11.65
2023-03-06T01:21:08.665Z,9.82
2023-03-06T01:23:35.670Z,11.13
2023-03-06T01:26:02.408Z,9.80
2023-03-06T01:28:30.057Z,9.45
2023-03-06T01:30:57.101Z,11.13
2023-03-06T01:33:23.785Z,12.45
2023-03-06T01:35:50.459Z,12.10
2023-03-06T01:38:17.117Z,13.98
2023-03-06T01:40:43.812Z,13.55
2023-03-06T01:43:11.923Z,14.88
2023-03-06T01:45:38.489Z,12.68
2023-03-06T01:48:05.126Z,13.05
2023-03-06T01:50:31.783Z,14.38
2023-03-06T01:53:00.709Z,14.90
2023-03-06T01:55:32.578Z,14.90
2023-03-06T01:58:03.469Z,14.88
2023-03-06T02:00:30.856Z,12.15
2023-03-06T02:03:09.788Z,14.45
2023-03-06T02:05:37.182Z,13.80
2023-03-06T02:08:05.774Z,11.68
2023-03-06T02:10:32.784Z,11.82
2023-03-06T02:13:00.401Z,13.82
2023-03-06T02:15:28.719Z,12.80
2023-03-06T02:17:55.995Z,14.93
2023-03-06T02:20:32.134Z,13.35
2023-03-06T02:23:34.226Z,14.98
2023-03-06T02:26:01.826Z,16.27
2023-03-06T02:28:28.698Z,14.30
2023-03-06T02:30:56.806Z,14.45
2023-03-06T02:33:26.869Z,12.48
2023-03-06T02:36:05.552Z,14.38
2023-03-06T02:38:37.657Z,11.15
2023-03-06T02:41:07.123Z,11.40
2023-03-06T02:43:40.453Z,13.40
2023-03-06T02:46:07.640Z,12.73
2023-03-06T02:48:34.456Z,14.02
2023-03-06T02:51:01.495Z,10.82
2023-03-06T02:53:28.746Z,11.52
2023-03-06T02:55:55.544Z,10.60
2023-03-06T02:58:22.093Z,13.38
2023-03-06T03:00:49.422Z,15.07
2023-03-06T03:03:16.475Z,10.27
2023-03-06T03:05:43.126Z,11.68
2023-03-06T03:08:09.782Z,12.38
2023-03-06T03:10:36.581Z,10.68
2023-03-06T03:13:03.344Z,11.10
2023-03-06T03:15:30.016Z,12.70
2023-03-06T03:17:56.759Z,12.88
2023-03-06T03:20:23.724Z,9.82
2023-03-06T03:22:52.849Z,9.10
2023-03-06T03:25:20.660Z,9.48
2023-03-06T03:27:47.284Z,11.63
2023-03-06T03:30:14.526Z,10.63
2023-03-06T03:32:41.288Z,11.60
2023-03-06T03:35:09.438Z,14.68
2023-03-06T03:37:36.423Z,12.02
2023-03-06T03:40:05.073Z,15.52
2023-03-06T03:42:31.619Z,14.52
2023-03-06T03:44:58.201Z,18.40
2023-03-06T03:47:24.804Z,22.98
2023-03-06T03:49:51.550Z,36.90
2023-03-06T03:52:18.268Z,44.08
2023-03-06T03:54:44.907Z,46.75
2023-03-06T03:57:11.825Z,51.50
2023-03-06T03:59:38.436Z,50.67
2023-03-06T04:02:05.627Z,41.15
2023-03-06T04:04:32.312Z,46.00
2023-03-06T04:06:58.930Z,41.17
2023-03-06T04:09:25.530Z,40.35
2023-03-06T04:11:52.210Z,32.28
2023-03-06T04:14:18.946Z,36.40
2023-03-06T04:16:45.676Z,26.48
2023-03-06T04:19:12.266Z,30.42
2023-03-06T04:21:38.876Z,24.85
2023-03-06T04:24:05.997Z,21.80
2023-03-06T04:26:32.568Z,24.35
2023-03-06T04:28:59.528Z,20.58
2023-03-06T04:31:26.094Z,23.55
2023-03-06T04:33:52.806Z,22.55
2023-03-06T04:36:28.701Z,21.58
2023-03-06T04:38:55.342Z,17.55
2023-03-06T04:41:23.441Z,21.40
2023-03-06T04:43:50.901Z,18.92
2023-03-06T04:46:17.837Z,21.40
2023-03-06T04:48:44.669Z,20.67
2023-03-06T04:51:15.038Z,16.95
2023-03-06T04:53:41.682Z,19.33
2023-03-06T04:56:08.756Z,18.30
2023-03-06T04:58:35.487Z,17.17
2023-03-06T05:01:02.473Z,18.52
2023-03-06T05:03:29.132Z,24.73
2023-03-06T05:05:55.887Z,23.25
2023-03-06T05:08:23.814Z,27.45
2023-03-06T05:10:59.003Z,24.20
2023-03-06T05:13:26.789Z,19.98
2023-03-06T05:15:53.573Z,30.10
2023-03-06T05:18:20.791Z,44.58
2023-03-06T05:20:47.345Z,79.35
2023-03-06T05:23:13.951Z,35.83
2023-03-06T05:25:41.350Z,17.17
2023-03-06T05:28:08.664Z,19.00
2023-03-06T05:30:35.864Z,14.77
2023-03-06T05:33:02.530Z,19.65
2023-03-06T05:35:29.158Z,23.88
2023-03-06T05:37:56.067Z,20.90
2023-03-06T05:40:22.783Z,19.35
2023-03-06T05:42:49.423Z,17.08
2023-03-06T05:45:16.064Z,16.50
2023-03-06T05:47:44.524Z,17.40
2023-03-06T05:50:12.051Z,19.67
2023-03-06T05:52:39.898Z,19.77
2023-03-06T05:55:08.157Z,20.40
2023-03-06T05:57:34.750Z,16.27
2023-03-06T06:00:01.335Z,18.05
2023-03-06T06:02:27.923Z,19.63
2023-03-06T06:04:54.596Z,17.60
2023-03-06T06:07:21.365Z,17.65
2023-03-06T06:09:47.883Z,15.82
2023-03-06T06:12:14.769Z,12.52
2023-03-06T06:14:41.421Z,17.38
2023-03-06T06:17:08.162Z,13.95
2023-03-06T06:19:34.773Z,20.25
2023-03-06T06:22:02.980Z,19.27
2023-03-06T06:24:30.237Z,21.40
2023-03-06T06:26:58.506Z,16.38
2023-03-06T06:29:26.766Z,16.83
2023-03-06T06:31:54.988Z,18.10
2023-03-06T06:34:23.116Z,12.48
2023-03-06T06:36:53.227Z,13.40
2023-03-06T06:39:22.182Z,13.63
2023-03-06T06:42:05.656Z,15.80
2023-03-06T06:44:37.046Z,13.32
2023-03-06T06:47:23.724Z,14.35
2023-03-06T06:49:52.780Z,16.63
2023-03-06T06:52:19.797Z,18.05
2023-03-06T06:54:46.944Z,17.92
2023-03-06T06:57:14.001Z,16.75
2023-03-06T06:59:40.693Z,12.38
2023-03-06T07:02:07.664Z,15.05
2023-03-06T07:04:34.276Z,17.42
2023-03-06T07:07:01.679Z,14.27
2023-03-06T07:09:30.289Z,13.73
2023-03-06T07:11:58.003Z,14.95
2023-03-06T07:14:24.872Z,10.00
2023-03-06T07:16:51.605Z,20.42
2023-03-06T07:19:18.150Z,12.60
2023-03-06T07:21:44.773Z,15.30
2023-03-06T07:24:11.431Z,16.73
2023-03-06T07:26:38.223Z,15.15
2023-03-06T07:29:05.273Z,11.20
2023-03-06T07:31:32.231Z,13.02
2023-03-06T07:33:58.782Z,14.55
2023-03-06T07:36:25.502Z,12.90
2023-03-06T07:38:52.061Z,12.70
2023-03-06T07:41:21.865Z,12.85
2023-03-06T07:43:49.387Z,14.73
2023-03-06T07:46:16.245Z,12.65
2023-03-06T07:48:43.362Z,15.63
2023-03-06T07:51:19.546Z,14.50
2023-03-06T07:53:47.028Z,16.33
2023-03-06T07:56:13.646Z,11.38
2023-03-06T07:58:43.181Z,18.13
2023-03-06T08:01:23.504Z,14.15
2023-03-06T08:03:50.607Z,12.23
2023-03-06T08:06:20.097Z,11.18
2023-03-06T08:08:48.499Z,14.60
2023-03-06T08:11:16.759Z,15.52
2023-03-06T08:13:44.424Z,12.38
2023-03-06T08:16:11.657Z,15.48
2023-03-06T08:18:41.633Z,15.85
2023-03-06T08:21:11.740Z,12.15
2023-03-06T08:23:39.079Z,18.30
2023-03-06T08:26:08.265Z,14.45
2023-03-06T08:28:35.070Z,19.17
2023-03-06T08:31:12.018Z,16.30
2023-03-06T08:33:39.795Z,12.45
2023-03-06T08:36:06.588Z,12.82
2023-03-06T08:38:33.167Z,12.05
2023-03-06T08:40:59.712Z,13.02
2023-03-06T08:43:26.267Z,13.98
2023-03-06T08:45:54.210Z,16.60
2023-03-06T08:48:20.959Z,12.27
2023-03-06T08:50:47.735Z,12.45
2023-03-06T08:53:14.425Z,15.23
2023-03-06T08:55:41.054Z,12.52
2023-03-06T08:58:08.011Z,12.25
2023-03-06T09:00:35.494Z,13.55
2023-03-06T09:03:02.248Z,17.63
2023-03-06T09:05:28.982Z,15.60
2023-03-06T09:07:56.515Z,16.10
2023-03-06T09:10:25.103Z,19.70
2023-03-06T09:12:54.688Z,14.07
2023-03-06T09:15:22.674Z,15.45
2023-03-06T09:17:49.413Z,14.63
2023-03-06T09:20:16.671Z,12.38
2023-03-06T09:22:43.641Z,17.17
2023-03-06T09:25:11.290Z,12.13
2023-03-06T09:27:38.017Z,17.45
2023-03-06T09:30:05.324Z,16.15
2023-03-06T09:32:31.987Z,17.25
2023-03-06T09:34:58.804Z,15.93
2023-03-06T09:37:25.543Z,13.93
2023-03-06T09:39:52.237Z,18.10
2023-03-06T09:42:21.862Z,14.15
2023-03-06T09:44:55.204Z,12.93
2023-03-06T09:47:45.699Z,17.83
2023-03-06T09:50:30.716Z,15.95
2023-03-06T09:53:07.599Z,14.85
2023-03-06T09:55:40.444Z,16.33
2023-03-06T09:58:13.279Z,15.13
2023-03-06T10:00:45.740Z,14.27
2023-03-06T10:03:34.326Z,14.65
2023-03-06T10:06:16.328Z,12.52
2023-03-06T10:09:00.722Z,15.95
2023-03-06T10:11:47.293Z,12.50
2023-03-06T10:14:21.359Z,13.40
2023-03-06T10:16:48.205Z,14.77
2023-03-06T10:19:18.228Z,14.23
2023-03-06T10:22:07.336Z,14.95
2023-03-06T10:24:49.862Z,14.80
2023-03-06T10:27:49.687Z,14.02
2023-03-06T10:30:34.018Z,11.18
2023-03-06T10:33:12.394Z,16.48
2023-03-06T10:35:51.666Z,15.13
2023-03-06T10:38:25.072Z,14.60
2023-03-06T10:41:04.202Z,16.45
2023-03-06T10:43:30.943Z,17.98
2023-03-06T10:45:57.591Z,10.95
2023-03-06T10:48:27.712Z,15.90
2023-03-06T10:51:18.435Z,20.48
2023-03-06T10:54:22.317Z,20.35
2023-03-06T10:56:48.886Z,13.68
2023-03-06T10:59:18.299Z,13.98
2023-03-06T11:01:51.132Z,13.90
2023-03-06T11:04:17.736Z,11.73
2023-03-06T11:06:44.596Z,15.75
2023-03-06T11:09:23.098Z,13.23
2023-03-06T11:11:50.973Z,13.68
2023-03-06T11:14:20.811Z,11.88
2023-03-06T11:16:53.841Z,11.20
2023-03-06T11:19:29.124Z,10.48
2023-03-06T11:22:19.528Z,12.68
2023-03-06T11:24:50.572Z,9.93
2023-03-06T11:27:26.635Z,10.38
2023-03-06T11:29:55.717Z,11.52
2023-03-06T11:32:33.253Z,13.40
2023-03-06T11:35:18.383Z,17.77
2023-03-06T11:38:05.322Z,12.50
2023-03-06T11:40:40.391Z,11.27
2023-03-06T11:43:33.910Z,12.45
2023-03-06T11:46:12.233Z,11.70
2023-03-06T11:48:52.279Z,10.98
2023-03-06T11:51:26.148Z,11.18
2023-03-06T11:53:54.165Z,11.73
2023-03-06T11:56:50.667Z,9.88
2023-03-06T11:59:26.355Z,14.93
2023-03-06T12:02:01.937Z,15.15
2023-03-06T12:04:34.650Z,11.80
2023-03-06T12:07:16.050Z,10.43
2023-03-06T12:09:47.686Z,9.70
2023-03-06T12:12:29.742Z,6.70
2023-03-06T12:15:11.337Z,3.85
2023-03-06T12:17:59.259Z,5.00
2023-03-06T12:20:41.615Z,3.10
2023-03-06T12:23:17.243Z,3.65
2023-03-06T12:25:51.993Z,3.05
2023-03-06T12:28:44.391Z,2.40
2023-03-06T12:31:25.089Z,4.32
2023-03-06T12:34:24.905Z,8.98
2023-03-06T12:37:08.726Z,2.35
2023-03-06T12:39:36.044Z,7.97
2023-03-06T12:42:42.521Z,3.90
2023-03-06T12:45:28.329Z,3.20
2023-03-06T12:47:57.186Z,4.63
2023-03-06T12:50:27.364Z,9.40
2023-03-06T12:52:58.164Z,2.97
2023-03-06T12:55:26.210Z,8.85
2023-03-06T12:57:53.002Z,4.75
2023-03-06T13:00:35.043Z,6.40
2023-03-06T13:03:14.569Z,6.82
2023-03-06T13:05:44.165Z,2.22
2023-03-06T13:08:35.385Z,6.00
2023-03-06T13:11:22.452Z,4.45
2023-03-06T13:13:49.482Z,6.80
2023-03-06T13:16:16.275Z,5.57
2023-03-06T13:18:42.835Z,1.60
2023-03-06T13:21:48.170Z,4.88
2023-03-06T13:24:17.790Z,5.70
2023-03-06T13:26:44.379Z,1.67
2023-03-06T13:29:48.996Z,3.22
2023-03-06T13:32:19.379Z,3.33
2023-03-06T13:34:50.530Z,1.83
2023-03-06T13:37:17.095Z,4.05
2023-03-06T13:39:52.531Z,5.32
2023-03-06T13:42:36.718Z,1.35
2023-03-06T13:45:24.715Z,9.93
2023-03-06T13:50:47.086Z,3.00
2023-03-06T13:53:46.726Z,7.30
2023-03-06T13:56:33.788Z,9.13
2023-03-06T13:59:37.307Z,1.33
2023-03-06T14:02:52.032Z,3.53
2023-03-06T14:05:19.685Z,3.15
2023-03-06T14:07:48.546Z,0.93
2023-03-06T14:10:21.545Z,1.65
2023-03-06T14:12:51.061Z,1.45
2023-03-06T14:15:24.808Z,2.20
2023-03-06T14:18:00.295Z,1.90
2023-03-06T14:20:35.511Z,1.20
2023-03-06T14:23:20.992Z,1.95
2023-03-06T14:25:52.827Z,3.42
2023-03-06T14:28:30.724Z,3.30
2023-03-06T14:31:00.113Z,2.00
2023-03-06T14:33:54.787Z,2.70
2023-03-06T14:36:24.510Z,6.93
2023-03-06T14:38:51.064Z,1.80
2023-03-06T14:41:35.134Z,3.78
2023-03-06T14:44:09.124Z,2.80
2023-03-06T14:46:35.825Z,3.55
2023-03-06T14:49:07.421Z,6.65
2023-03-06T14:51:41.646Z,3.65
2023-03-06T14:54:16.182Z,0.90
2023-03-06T14:56:47.147Z,2.45
2023-03-06T14:59:16.514Z,4.68
2023-03-06T15:01:49.616Z,11.75
2023-03-06T15:04:28.403Z,5.38
2023-03-06T15:06:56.643Z,4.22
2023-03-06T15:09:32.925Z,10.73
2023-03-06T15:12:02.366Z,5.35
2023-03-06T15:14:42.542Z,2.47
2023-03-06T15:17:20.785Z,1.98
2023-03-06T15:19:50.183Z,3.13
2023-03-06T15:22:38.660Z,2.40
2023-03-06T15:25:27.346Z,1.50
2023-03-06T15:28:30.648Z,1.25
2023-03-06T15:31:21.040Z,3.85
2023-03-06T15:34:23.925Z,4.68
2023-03-06T15:36:54.796Z,9.77
2023-03-06T15:39:38.964Z,4.57
2023-03-06T15:42:14.469Z,4.10
2023-03-06T15:44:41.739Z,3.42
2023-03-06T15:47:12.058Z,1.92
2023-03-06T15:49:40.212Z,2.15
2023-03-06T15:52:08.041Z,3.45
2023-03-06T15:54:35.632Z,7.63
2023-03-06T15:57:08.815Z,2.45
2023-03-06T15:59:44.514Z,7.70
2023-03-06T16:02:17.075Z,7.35
2023-03-06T16:04:44.925Z,7.43
2023-03-06T16:07:12.532Z,9.85
2023-03-06T16:09:41.639Z,7.07
2023-03-06T16:12:17.388Z,5.18
2023-03-06T16:14:45.463Z,4.40
2023-03-06T16:17:12.764Z,5.95
2023-03-06T16:19:39.481Z,10.13
2023-03-06T16:22:06.260Z,5.53
2023-03-06T16:24:32.903Z,6.38
2023-03-06T16:27:01.772Z,2.97
2023-03-06T16:29:29.082Z,3.97
2023-03-06T16:31:57.903Z,1.83
2023-03-06T16:34:24.791Z,2.95
2023-03-06T16:36:51.962Z,5.07
2023-03-06T16:39:21.932Z,9.90
2023-03-06T16:41:52.140Z,5.53
2023-03-06T16:44:19.893Z,8.88
2023-03-06T16:46:48.250Z,9.75
2023-03-06T16:49:20.387Z,7.55
2023-03-06T16:51:47.393Z,5.07
2023-03-06T16:54:14.329Z,7.30
2023-03-06T16:56:41.285Z,5.05
2023-03-06T16:59:08.227Z,3.38
2023-03-06T17:01:35.207Z,6.57
2023-03-06T17:04:01.870Z,3.40
2023-03-06T17:06:28.800Z,4.40
2023-03-06T17:08:57.924Z,8.93
2023-03-06T17:11:25.061Z,5.78
2023-03-06T17:13:51.766Z,5.80
2023-03-06T17:16:18.596Z,7.50
2023-03-06T17:18:46.116Z,9.10
2023-03-06T17:21:15.770Z,6.78
2023-03-06T17:23:42.747Z,6.05
2023-03-06T17:26:20.417Z,5.13
2023-03-06T17:28:47.488Z,13.73
2023-03-06T17:31:18.814Z,6.00
2023-03-06T17:33:46.114Z,4.47
2023-03-06T17:36:16.885Z,4.30
2023-03-06T17:38:44.654Z,3.45
2023-03-06T17:41:12.193Z,7.03
2023-03-06T17:43:39.921Z,4.45
2023-03-06T17:46:08.691Z,3.65
2023-03-06T17:48:36.040Z,4.05
2023-03-06T17:51:04.195Z,2.03
2023-03-06T17:53:30.987Z,6.32
2023-03-06T17:56:00.431Z,7.82
2023-03-06T17:58:27.393Z,3.85
2023-03-06T18:00:54.487Z,4.10
2023-03-06T18:03:21.870Z,3.22
2023-03-06T18:05:57.885Z,5.50
2023-03-06T18:08:24.767Z,5.75
2023-03-06T18:10:51.378Z,3.90
2023-03-06T18:13:18.015Z,4.05
2023-03-06T18:15:44.559Z,8.00
2023-03-06T18:18:11.591Z,3.92
2023-03-06T18:20:41.928Z,5.25
2023-03-06T18:23:08.536Z,6.53
2023-03-06T18:25:35.313Z,5.10
2023-03-06T18:28:01.995Z,5.78
2023-03-06T18:30:28.944Z,6.18
2023-03-06T18:32:55.661Z,7.93
2023-03-06T18:35:22.406Z,7.10
2023-03-06T18:37:48.985Z,9.48
2023-03-06T18:40:15.996Z,6.05
2023-03-06T18:42:42.636Z,7.40
2023-03-06T18:45:10.269Z,6.07
2023-03-06T18:47:37.006Z,4.03
2023-03-06T18:50:03.884Z,11.32
2023-03-06T18:52:30.475Z,10.80
2023-03-06T18:54:57.330Z,10.10
2023-03-06T18:57:24.001Z,8.95
2023-03-06T18:59:50.714Z,8.77
2023-03-06T19:02:17.547Z,6.45
2023-03-06T19:04:44.196Z,7.90
2023-03-06T19:07:13.565Z,5.50
2023-03-06T19:09:40.320Z,6.00
2023-03-06T19:12:07.184Z,5.85
2023-03-06T19:14:34.345Z,8.60
2023-03-06T19:17:01.932Z,10.20
2023-03-06T19:19:29.412Z,8.13
2023-03-06T19:21:59.407Z,5.10
2023-03-06T19:24:26.608Z,7.78
2023-03-06T19:26:53.333Z,6.15
2023-03-06T19:29:19.936Z,4.00
2023-03-06T19:31:46.669Z,8.00
2023-03-06T19:34:13.280Z,5.95
2023-03-06T19:36:40.878Z,3.13
2023-03-06T19:39:09.548Z,7.22
2023-03-06T19:41:36.807Z,4.55
2023-03-06T19:44:06.065Z,1.85
2023-03-06T19:46:32.947Z,2.80
2023-03-06T19:49:02.016Z,3.28
2023-03-06T19:51:29.463Z,2.75
2023-03-06T19:53:57.444Z,3.45
2023-03-06T19:56:26.935Z,2.67
2023-03-06T19:58:53.770Z,1.80
2023-03-06T20:01:23.030Z,4.68
2023-03-06T20:03:50.694Z,1.67
2023-03-06T20:06:19.347Z,3.53
2023-03-06T20:08:47.351Z,1.20
2023-03-06T20:11:22.975Z,2.83
2023-03-06T20:13:49.684Z,4.38
2023-03-06T20:16:18.120Z,11.23
2023-03-06T20:18:45.584Z,11.55
2023-03-06T20:21:12.727Z,6.18
2023-03-06T20:23:39.479Z,8.40
2023-03-06T20:26:12.182Z,9.48
2023-03-06T20:28:39.659Z,7.72
2023-03-06T20:31:08.682Z,8.48
2023-03-06T20:33:35.517Z,9.43
2023-03-06T20:36:02.420Z,7.93
2023-03-06T20:38:29.222Z,6.20
2023-03-06T20:40:57.923Z,8.43
2023-03-06T20:43:24.510Z,9.10
2023-03-06T20:46:03.529Z,10.32
2023-03-06T20:48:30.180Z,9.85
2023-03-06T20:51:08.268Z,17.50
2023-03-06T20:53:37.786Z,16.20
2023-03-06T20:56:05.264Z,17.63
2023-03-06T20:58:33.055Z,13.23
2023-03-06T21:01:02.043Z,12.90
2023-03-06T21:03:29.325Z,16.55
2023-03-06T21:05:55.880Z,15.15
2023-03-06T21:08:23.290Z,15.60
2023-03-06T21:10:50.490Z,15.80
2023-03-06T21:13:17.643Z,10.18
2023-03-06T21:15:47.569Z,16.80
2023-03-06T21:18:14.685Z,17.27
2023-03-06T21:20:42.309Z,9.48
2023-03-06T21:23:09.263Z,13.68
2023-03-06T21:25:36.036Z,13.27
2023-03-06T21:28:02.877Z,13.93
2023-03-06T21:30:30.017Z,15.18
2023-03-06T21:32:56.650Z,12.90
2023-03-06T21:35:23.221Z,16.88
2023-03-06T21:37:50.073Z,16.70
2023-03-06T21:40:16.805Z,14.25
2023-03-06T21:42:43.552Z,13.50
2023-03-06T21:45:10.592Z,11.80
2023-03-06T21:47:38.901Z,14.35
2023-03-06T21:50:07.828Z,12.32
2023-03-06T21:52:34.407Z,14.73
2023-03-06T21:55:01.632Z,17.52
2023-03-06T21:57:28.210Z,18.92
2023-03-06T21:59:55.152Z,17.33
2023-03-06T22:02:22.102Z,14.52
2023-03-06T22:04:52.918Z,15.77
2023-03-06T22:07:20.495Z,16.67
2023-03-06T22:09:47.544Z,17.98
2023-03-06T22:12:14.541Z,14.10
2023-03-06T22:14:43.956Z,15.90
2023-03-06T22:17:10.611Z,10.73
2023-03-06T22:19:37.186Z,16.83
2023-03-06T22:22:04.528Z,13.75
2023-03-06T22:24:31.992Z,12.82
2023-03-06T22:26:58.681Z,10.52
2023-03-06T22:29:25.639Z,8.90
2023-03-06T22:31:53.021Z,7.22
2023-03-06T22:34:19.759Z,9.88
2023-03-06T22:36:46.526Z,9.15
2023-03-06T22:39:13.983Z,8.40
2023-03-06T22:41:41.429Z,10.40
2023-03-06T22:44:07.967Z,7.65
2023-03-06T22:46:34.745Z,6.00
2023-03-06T22:49:02.463Z,6.97
2023-03-06T22:51:29.709Z,7.05
2023-03-06T22:53:56.338Z,8.00
2023-03-06T22:56:23.005Z,9.90
2023-03-06T22:58:49.920Z,8.48
2023-03-06T23:01:25.911Z,9.93
2023-03-06T23:03:55.007Z,10.45
2023-03-06T23:06:31.233Z,12.25
2023-03-06T23:09:01.007Z,6.47
2023-03-06T23:11:29.063Z,6.82
2023-03-06T23:13:56.412Z,6.25
2023-03-06T23:16:23.476Z,4.97
2023-03-06T23:18:51.627Z,6.45
2023-03-06T23:21:20.543Z,7.57
2023-03-06T23:23:49.080Z,10.63
2023-03-06T23:26:17.609Z,8.00
2023-03-06T23:28:44.361Z,8.23
2023-03-06T23:31:14.532Z,6.82
2023-03-06T23:33:41.747Z,11.85
2023-03-06T23:36:14.062Z,8.68
2023-03-06T23:38:41.052Z,9.02
2023-03-06T23:41:11.473Z,6.53
2023-03-06T23:43:38.488Z,8.07
2023-03-06T23:46:05.566Z,7.82
2023-03-06T23:48:32.385Z,8.25
2023-03-06T23:50:59.059Z,10.35
2023-03-06T23:53:25.708Z,13.50
2023-03-06T23:55:53.930Z,8.15
2023-03-06T23:58:20.695Z,7.47
